createdAt,value
2023-02-11T00:04:33.721Z,72.28
2023-02-11T00:09:37.885Z,72.13
2023-02-11T00:14:40.769Z,72.45
2023-02-11T00:19:43.682Z,72.46
2023-02-11T00:24:46.370Z,72.63
2023-02-11T00:29:49.513Z,72.77
2023-02-11T00:34:53.435Z,72.52
2023-02-11T00:39:56.221Z,72.34
2023-02-11T00:44:58.903Z,72.74
2023-02-11T00:50:04.699Z,72.26
2023-02-11T00:55:08.808Z,72.19
2023-02-11T01:00:13.590Z,71.85
2023-02-11T01:05:16.371Z,71.88
2023-02-11T01:10:19.385Z,71.74
2023-02-11T01:15:22.714Z,71.70
2023-02-11T01:20:28.072Z,71.72
2023-02-11T01:25:31.360Z,72.10
2023-02-11T01:30:34.286Z,72.10
2023-02-11T01:35:38.918Z,72.08
2023-02-11T01:40:47.564Z,72.17
2023-02-11T01:46:03.904Z,72.04
2023-02-11T01:51:11.506Z,72.15
2023-02-11T01:56:34.964Z,72.00
2023-02-11T02:01:40.713Z,72.01
2023-02-11T02:06:56.167Z,72.33
2023-02-11T02:11:58.862Z,72.01
2023-02-11T02:17:01.654Z,71.92
2023-02-11T02:22:23.209Z,72.00
2023-02-11T02:27:42.265Z,71.89
2023-02-11T02:33:20.481Z,72.03
2023-02-11T02:38:47.007Z,72.22
2023-02-11T02:43:51.399Z,71.95
2023-02-11T02:48:55.440Z,71.52
2023-02-11T02:54:10.300Z,71.59
2023-02-11T02:59:31.650Z,71.43
2023-02-11T03:05:06.613Z,71.91
2023-02-11T03:10:17.209Z,71.91
2023-02-11T03:15:22.669Z,71.34
2023-02-11T03:20:27.511Z,71.68
2023-02-11T03:25:36.435Z,71.46
2023-02-11T03:30:45.913Z,71.33
2023-02-11T03:35:58.828Z,71.22
2023-02-11T03:41:04.828Z,71.01
2023-02-11T03:46:11.037Z,71.19
2023-02-11T03:51:15.964Z,71.55
2023-02-11T03:56:24.088Z,70.86
2023-02-11T04:01:26.925Z,70.36
2023-02-11T04:06:29.732Z,70.48
2023-02-11T04:11:32.501Z,70.58
2023-02-11T04:16:35.794Z,70.54
2023-02-11T04:21:38.505Z,70.42
2023-02-11T04:26:41.197Z,69.95
2023-02-11T04:31:44.071Z,70.43
2023-02-11T04:36:47.305Z,70.54
2023-02-11T04:41:50.124Z,70.76
2023-02-11T04:46:53.226Z,71.42
2023-02-11T04:51:55.964Z,72.20
2023-02-11T04:56:58.732Z,72.00
2023-02-11T05:02:01.444Z,72.24
2023-02-11T05:07:04.158Z,72.98
2023-02-11T05:12:07.647Z,73.82
2023-02-11T05:17:10.347Z,74.52
2023-02-11T05:22:13.068Z,75.95
2023-02-11T05:27:15.868Z,76.36
2023-02-11T05:32:18.588Z,77.24
2023-02-11T05:37:21.880Z,77.29
2023-02-11T05:42:24.784Z,77.48
2023-02-11T05:47:27.890Z,77.34
2023-02-11T05:52:30.640Z,77.78
2023-02-11T05:57:34.398Z,77.60
2023-02-11T06:02:37.172Z,77.83
2023-02-11T06:07:39.964Z,77.97
2023-02-11T06:12:42.698Z,78.16
2023-02-11T06:17:45.407Z,78.23
2023-02-11T06:22:48.204Z,78.04
2023-02-11T06:27:50.926Z,78.34
2023-02-11T06:32:54.827Z,78.50
2023-02-11T06:37:57.936Z,77.97
2023-02-11T06:43:00.847Z,77.78
2023-02-11T06:48:03.749Z,77.94
2023-02-11T06:53:06.459Z,78.02
2023-02-11T06:58:09.187Z,78.79
2023-02-11T07:03:11.990Z,79.01
2023-02-11T07:08:14.840Z,79.29
2023-02-11T07:13:17.549Z,79.22
2023-02-11T07:18:20.363Z,79.74
2023-02-11T07:23:23.094Z,80.12
2023-02-11T07:28:25.880Z,79.86
2023-02-11T07:33:28.654Z,79.79
2023-02-11T07:38:33.087Z,79.69
2023-02-11T07:43:37.490Z,79.74
2023-02-11T07:48:40.867Z,79.72
2023-02-11T07:53:43.963Z,79.83
2023-02-11T07:58:47.268Z,80.45
2023-02-11T08:03:50.169Z,80.94
2023-02-11T08:08:53.215Z,81.49
2023-02-11T08:13:57.175Z,81.68
2023-02-11T08:19:02.465Z,81.68
2023-02-11T08:24:06.358Z,82.17
2023-02-11T08:29:12.477Z,82.05
2023-02-11T08:34:18.439Z,81.78
2023-02-11T08:39:22.513Z,81.84
2023-02-11T08:44:26.714Z,81.96
2023-02-11T08:49:30.945Z,82.04
2023-02-11T08:54:33.752Z,81.98
2023-02-11T08:59:36.531Z,82.01
2023-02-11T09:04:39.259Z,81.82
2023-02-11T09:09:42.088Z,82.16
2023-02-11T09:14:44.868Z,82.30
2023-02-11T09:19:47.619Z,82.52
2023-02-11T09:24:50.484Z,82.31
2023-02-11T09:29:53.256Z,82.18
2023-02-11T09:34:56.061Z,82.09
2023-02-11T09:39:59.312Z,82.30
2023-02-11T09:45:05.142Z,82.18
2023-02-11T09:50:15.024Z,81.93
2023-02-11T09:55:28.361Z,81.94
2023-02-11T10:00:44.072Z,82.26
2023-02-11T10:06:05.372Z,82.10
2023-02-11T10:11:30.967Z,82.19
2023-02-11T10:17:00.265Z,82.68
2023-02-11T10:22:22.126Z,83.19
2023-02-11T10:27:31.054Z,82.91
2023-02-11T10:33:00.065Z,82.20
2023-02-11T10:38:02.979Z,82.02
2023-02-11T10:43:11.427Z,82.28
2023-02-11T10:48:36.229Z,82.21
2023-02-11T10:53:39.643Z,82.03
2023-02-11T10:58:54.668Z,82.09
2023-02-11T11:03:59.996Z,82.21
2023-02-11T11:09:03.009Z,81.94
2023-02-11T11:14:05.794Z,82.16
2023-02-11T11:19:08.488Z,82.45
2023-02-11T11:24:29.463Z,82.49
2023-02-11T11:29:39.281Z,82.43
2023-02-11T11:34:42.915Z,82.73
2023-02-11T11:40:22.074Z,82.12
2023-02-11T11:45:26.651Z,82.11
2023-02-11T11:50:37.489Z,81.78
2023-02-11T11:55:45.065Z,81.94
2023-02-11T12:01:20.073Z,82.18
2023-02-11T12:06:45.910Z,82.59
2023-02-11T12:12:24.331Z,82.41
2023-02-11T12:18:08.516Z,82.52
2023-02-11T12:23:49.724Z,82.25
2023-02-11T12:29:01.327Z,81.76
2023-02-11T12:34:29.118Z,81.49
2023-02-11T12:39:46.160Z,81.29
2023-02-11T12:45:07.283Z,81.47
2023-02-11T12:50:41.074Z,81.37
2023-02-11T12:55:48.910Z,81.30
2023-02-11T13:00:57.517Z,81.57
2023-02-11T13:06:07.378Z,81.64
2023-02-11T13:11:18.065Z,81.81
2023-02-11T13:16:23.522Z,82.10
2023-02-11T13:21:34.999Z,82.32
2023-02-11T13:26:43.132Z,82.02
2023-02-11T13:32:07.139Z,81.84
2023-02-11T13:37:39.925Z,82.04
2023-02-11T13:43:04.126Z,81.98
2023-02-11T13:48:25.287Z,81.91
2023-02-11T13:53:29.602Z,81.91
2023-02-11T13:58:32.515Z,82.18
2023-02-11T14:03:57.633Z,81.99
2023-02-11T14:09:09.700Z,81.97
2023-02-11T14:14:23.847Z,81.92
2023-02-11T14:19:39.015Z,81.58
2023-02-11T14:24:46.280Z,81.51
2023-02-11T14:30:15.163Z,81.64
2023-02-11T14:35:50.289Z,81.47
2023-02-11T14:41:09.882Z,81.46
2023-02-11T14:46:16.632Z,81.24
2023-02-11T14:51:23.795Z,81.00
2023-02-11T14:56:31.238Z,80.82
2023-02-11T15:01:36.409Z,80.61
2023-02-11T15:06:43.059Z,80.35
2023-02-11T15:11:49.001Z,80.29
2023-02-11T15:16:54.887Z,80.62
2023-02-11T15:21:59.434Z,80.83
2023-02-11T15:27:08.280Z,80.91
2023-02-11T15:32:18.458Z,80.58
2023-02-11T15:37:29.974Z,80.31
2023-02-11T15:42:43.917Z,80.15
2023-02-11T15:48:15.261Z,80.02
2023-02-11T15:53:40.548Z,79.83
2023-02-11T15:58:47.639Z,79.53
2023-02-11T16:03:50.938Z,79.41
2023-02-11T16:09:02.122Z,79.27
2023-02-11T16:14:29.935Z,79.35
2023-02-11T16:19:34.368Z,79.29
2023-02-11T16:24:38.593Z,79.04
2023-02-11T16:29:46.922Z,79.13
2023-02-11T16:34:51.058Z,79.16
2023-02-11T16:39:54.674Z,79.10
2023-02-11T16:44:58.139Z,78.87
2023-02-11T16:50:02.725Z,78.85
2023-02-11T16:55:06.466Z,78.57
2023-02-11T17:00:11.256Z,78.37
2023-02-11T17:05:20.182Z,77.99
2023-02-11T17:10:24.998Z,78.08
2023-02-11T17:15:27.784Z,77.98
2023-02-11T17:20:30.684Z,77.86
2023-02-11T17:25:34.119Z,77.79
2023-02-11T17:30:39.946Z,77.91
2023-02-11T17:35:42.693Z,77.84
2023-02-11T17:40:45.494Z,78.09
2023-02-11T17:45:48.275Z,77.89
2023-02-11T17:50:51.194Z,77.77
2023-02-11T17:55:56.106Z,77.56
2023-02-11T18:00:59.079Z,77.51
2023-02-11T18:06:04.532Z,77.37
2023-02-11T18:11:11.569Z,77.07
2023-02-11T18:16:15.985Z,76.87
2023-02-11T18:21:20.403Z,76.72
2023-02-11T18:26:26.373Z,76.40
2023-02-11T18:31:30.205Z,76.17
2023-02-11T18:36:33.747Z,75.79
2023-02-11T18:41:36.493Z,75.55
2023-02-11T18:46:39.269Z,75.50
2023-02-11T18:51:42.761Z,75.44
2023-02-11T18:56:45.651Z,75.24
2023-02-11T19:01:48.487Z,74.97
2023-02-11T19:06:51.767Z,74.62
2023-02-11T19:11:55.491Z,74.62
2023-02-11T19:17:00.569Z,74.45
2023-02-11T19:22:09.181Z,74.30
2023-02-11T19:27:13.892Z,74.19
2023-02-11T19:32:16.727Z,74.10
2023-02-11T19:37:19.904Z,73.79
2023-02-11T19:42:23.300Z,73.62
2023-02-11T19:47:28.066Z,73.61
2023-02-11T19:52:31.001Z,73.66
2023-02-11T19:57:33.702Z,73.63
2023-02-11T20:02:38.164Z,73.58
2023-02-11T20:07:40.930Z,73.14
2023-02-11T20:12:43.625Z,72.93
2023-02-11T20:17:46.340Z,73.32
2023-02-11T20:22:49.053Z,73.15
2023-02-11T20:27:52.147Z,73.05
2023-02-11T20:32:55.451Z,72.72
2023-02-11T20:37:58.182Z,72.67
2023-02-11T20:43:00.848Z,72.67
2023-02-11T20:48:03.602Z,72.38
2023-02-11T20:53:06.551Z,72.27
2023-02-11T20:58:09.456Z,72.18
2023-02-11T21:03:12.165Z,72.36
2023-02-11T21:08:14.936Z,72.71
2023-02-11T21:13:18.219Z,72.60
2023-02-11T21:18:22.250Z,72.70
2023-02-11T21:23:25.617Z,72.51
2023-02-11T21:28:29.282Z,72.45
2023-02-11T21:33:35.741Z,72.24
2023-02-11T21:38:38.458Z,72.04
2023-02-11T21:43:41.174Z,72.03
2023-02-11T21:48:43.901Z,72.02
2023-02-11T21:53:47.221Z,72.52
2023-02-11T21:58:53.386Z,72.69
2023-02-11T22:03:56.857Z,72.64
2023-02-11T22:09:04.253Z,72.63
2023-02-11T22:14:07.373Z,72.47
2023-02-11T22:19:10.084Z,72.19
2023-02-11T22:24:12.774Z,72.35
2023-02-11T22:29:15.967Z,72.52
2023-02-11T22:34:18.884Z,72.88
2023-02-11T22:39:21.680Z,73.16
2023-02-11T22:44:25.521Z,72.65
2023-02-11T22:49:29.058Z,72.79
2023-02-11T22:54:31.737Z,72.43
2023-02-11T22:59:34.480Z,72.57
2023-02-11T23:04:37.246Z,72.74
2023-02-11T23:09:40.042Z,72.54
2023-02-11T23:14:42.828Z,72.09
2023-02-11T23:19:45.831Z,71.68
2023-02-11T23:24:48.562Z,71.38
2023-02-11T23:29:51.278Z,71.53
2023-02-11T23:34:54.174Z,71.52
2023-02-11T23:39:56.939Z,70.46
2023-02-11T23:44:59.727Z,70.63
2023-02-11T23:50:02.544Z,70.73
2023-02-11T23:55:06.448Z,70.64
